PWSweather.com
Personal Weather Stations
Station Observations
VPOKROGLO
Kal Nad Kanalom, PrimorskaSI

Kal Nad KanalomPrimorskaSI

Lat: 46.072, Lon: 13.734

Elevation: 2526

Station Type: WS-2355

http://www.okroglovreme.com

Latest ConditionsUpdated 2:30:00 PM GMT+01:01 Sunday, Jun 25, 2017
Currently Today's Max Today's Min Today's Average
Temperature 69.1°F20.6°C 71.4°F21.9°C 58.5°F14.7°C 68.0°F20.0°C
Dew Point 63.0°F17.2°C 64.9°F18.3°C 54.0°F12.2°C 60.7°F15.9°C
Winds 2.0 mph WNW3.2 kmh WNW 14.3 mph W23.0 kmh W - 2.4 mph 3.9 kmh
Wind Gusts 6.0 mph9.7 kmh 24.6 mph39.6 kmh - -
Humidity 81% 86% 70% 78%
Pressure 30.07 in1018.3 mb 30.18 in1022.0 mb 30.05 in1017.6 mb -
Precipitation - 0.85 in21.6 mm - -
Hour Temp Dew Point Humidity Winds Wind Gusts Pressure Precip Precip Rate Daily Precip Total
02:30 PM 69.1°F20.6°C 63.0°F17.2°C 81% 2.0 mph WNW3.2 kmh WNW 6.0 mph9.7 kmh 30.07 in1018.3 mb 0.00 in0.0 mm 0.00 in0.0 mm 0.85 in21.6 mm
02:26 PM 63.7°F17.6°C 57.7°F14.3°C 81% 1.8 mph ESE2.9 kmh ESE 3.8 mph6.1 kmh 30.09 in1019.0 mb 0.00 in0.0 mm 0.00 in0.0 mm 1.39 in35.3 mm
02:25 PM 69.4°F20.8°C 63.0°F17.2°C 80% 0.4 mph WNW0.6 kmh WNW 1.3 mph2.1 kmh 30.07 in1018.3 mb 0.00 in0.0 mm 0.00 in0.0 mm 1.41 in35.8 mm
02:20 PM 69.1°F20.6°C 62.6°F17.0°C 80% Calm Calm -- 30.06 in1017.9 mb 0.00 in0.0 mm 0.00 in0.0 mm 1.41 in35.8 mm
02:15 PM 69.1°F20.6°C 62.6°F17.0°C 80% 0.8 mph WNW1.3 kmh WNW 3.1 mph5.0 kmh 30.06 in1017.9 mb 0.00 in0.0 mm 0.00 in0.0 mm 1.41 in35.8 mm
02:00 PM 69.8°F21.0°C 63.3°F17.4°C 80% 1.4 mph SSW2.3 kmh SSW 6.3 mph10.1 kmh 30.06 in1017.9 mb 0.02 in0.5 mm 0.00 in0.0 mm 1.41 in35.8 mm
01:45 PM 71.2°F21.8°C 64.0°F17.8°C 78% 2.0 mph SE3.2 kmh SE 6.3 mph10.1 kmh 30.07 in1018.3 mb 0.02 in0.5 mm 0.00 in0.0 mm 1.41 in35.8 mm
01:30 PM 71.2°F21.8°C 64.4°F18.0°C 79% 5.2 mph SSE8.4 kmh SSE 7.4 mph11.9 kmh 30.06 in1017.9 mb 0.02 in0.5 mm 0.00 in0.0 mm 1.41 in35.8 mm
01:25 PM 70.7°F21.5°C 63.9°F17.7°C 79% 4.6 mph SSE7.4 kmh SSE 5.6 mph9.0 kmh 30.07 in1018.3 mb 0.02 in0.5 mm 0.00 in0.0 mm 1.41 in35.8 mm
01:20 PM 70.3°F21.3°C 63.2°F17.3°C 78% 4.3 mph SSE6.9 kmh SSE 5.6 mph9.0 kmh 30.07 in1018.3 mb 0.02 in0.5 mm 0.00 in0.0 mm 1.41 in35.8 mm
01:15 PM 69.3°F20.7°C 63.2°F17.3°C 81% 2.4 mph SSE3.9 kmh SSE 7.2 mph11.6 kmh 30.07 in1018.3 mb 0.02 in0.5 mm 0.08 in2.0 mm 1.41 in35.8 mm
01:00 PM 68.5°F20.3°C 62.8°F17.1°C 82% 2.1 mph SSE3.4 kmh SSE 6.5 mph10.5 kmh 30.08 in1018.6 mb 0.00 in0.0 mm 0.00 in0.0 mm 1.39 in35.3 mm
12:45 PM 66.4°F19.1°C 60.4°F15.8°C 81% 2.1 mph SSE3.4 kmh SSE 2.7 mph4.3 kmh 30.08 in1018.6 mb 0.00 in0.0 mm 0.00 in0.0 mm 1.39 in35.3 mm
12:44 PM 65.8°F18.8°C 59.5°F15.3°C 80% 1.6 mph SSE2.6 kmh SSE 2.0 mph3.2 kmh 30.08 in1018.6 mb 0.00 in0.0 mm 0.00 in0.0 mm 1.39 in35.3 mm
12:39 PM 66.6°F19.2°C 59.5°F15.3°C 78% 1.7 mph SSE2.7 kmh SSE 2.0 mph3.2 kmh 30.09 in1019.0 mb 0.00 in0.0 mm 0.00 in0.0 mm 1.39 in35.3 mm
12:34 PM 66.7°F19.3°C 58.9°F14.9°C 76% 2.2 mph SE3.5 kmh SE 3.6 mph5.8 kmh 30.09 in1019.0 mb 0.00 in0.0 mm 0.00 in0.0 mm 1.39 in35.3 mm
10:15 AM 69.4°F20.8°C 61.5°F16.4°C 76% 5.3 mph SE8.5 kmh SE 9.6 mph15.4 kmh 30.07 in1018.3 mb 0.00 in0.0 mm 0.00 in0.0 mm 0.16 in4.1 mm
10:00 AM 69.6°F20.9°C 61.3°F16.3°C 75% 6.1 mph S9.8 kmh S 11.9 mph19.2 kmh 30.10 in1019.3 mb 0.00 in0.0 mm 0.00 in0.0 mm 0.16 in4.1 mm
09:45 AM 69.8°F21.0°C 62.3°F16.8°C 77% 5.8 mph SSE9.3 kmh SSE 10.7 mph17.2 kmh 30.09 in1019.0 mb 0.00 in0.0 mm 0.00 in0.0 mm 0.16 in4.1 mm
09:30 AM 70.7°F21.5°C 62.4°F16.9°C 75% 2.5 mph SE4.0 kmh SE 8.5 mph13.7 kmh 30.09 in1019.0 mb 0.00 in0.0 mm 0.00 in0.0 mm 0.16 in4.1 mm
09:15 AM 70.9°F21.6°C 62.9°F17.2°C 76% 1.6 mph ESE2.6 kmh ESE 6.5 mph10.5 kmh 30.07 in1018.3 mb 0.00 in0.0 mm 0.00 in0.0 mm 0.16 in4.1 mm
09:00 AM 71.2°F21.8°C 64.0°F17.8°C 78% 0.6 mph NE1.0 kmh NE 5.4 mph8.7 kmh 30.07 in1018.3 mb 0.00 in0.0 mm 0.00 in0.0 mm 0.16 in4.1 mm
08:45 AM 71.4°F21.9°C 64.9°F18.3°C 80% Calm Calm 0.9 mph1.4 kmh 30.08 in1018.6 mb 0.00 in0.0 mm 0.00 in0.0 mm 0.16 in4.1 mm
05:00 AM 70.9°F21.6°C 60.6°F15.9°C 70% 0.1 mph ESE0.2 kmh ESE 1.6 mph2.6 kmh 30.10 in1019.3 mb 0.00 in0.0 mm 0.00 in0.0 mm 0.00 in0.0 mm
04:45 AM 70.5°F21.4°C 60.7°F15.9°C 71% 1.3 mph ESE2.1 kmh ESE 4.0 mph6.4 kmh 30.10 in1019.3 mb 0.00 in0.0 mm 0.00 in0.0 mm 0.00 in0.0 mm
04:30 AM 70.5°F21.4°C 60.7°F15.9°C 71% 1.0 mph ESE1.6 kmh ESE 3.1 mph5.0 kmh 30.10 in1019.3 mb 0.00 in0.0 mm 0.00 in0.0 mm 0.00 in0.0 mm
04:15 AM 70.3°F21.3°C 60.5°F15.8°C 71% 1.0 mph ESE1.6 kmh ESE 3.6 mph5.8 kmh 30.10 in1019.3 mb 0.00 in0.0 mm 0.00 in0.0 mm 0.00 in0.0 mm
04:00 AM 70.2°F21.2°C 60.7°F15.9°C 72% 0.6 mph ESE1.0 kmh ESE 2.5 mph4.0 kmh 30.11 in1019.6 mb 0.00 in0.0 mm 0.00 in0.0 mm 0.00 in0.0 mm
03:45 AM 70.3°F21.3°C 60.5°F15.8°C 71% 1.7 mph ESE2.7 kmh ESE 3.4 mph5.5 kmh 30.12 in1020.0 mb 0.00 in0.0 mm 0.00 in0.0 mm 0.00 in0.0 mm
03:30 AM 70.5°F21.4°C 60.7°F15.9°C 71% Calm Calm 1.3 mph2.1 kmh 30.12 in1020.0 mb 0.00 in0.0 mm 0.00 in0.0 mm 0.00 in0.0 mm
03:15 AM 70.0°F21.1°C 60.9°F16.1°C 73% 1.6 mph ESE2.6 kmh ESE 3.1 mph5.0 kmh 30.12 in1020.0 mb 0.00 in0.0 mm 0.00 in0.0 mm 0.00 in0.0 mm
03:00 AM 69.6°F20.9°C 61.0°F16.1°C 74% 0.2 mph ESE0.3 kmh ESE 2.0 mph3.2 kmh 30.12 in1020.0 mb 0.00 in0.0 mm 0.00 in0.0 mm 0.00 in0.0 mm
02:45 AM 69.4°F20.8°C 61.2°F16.2°C 75% 0.1 mph ESE0.2 kmh ESE 1.8 mph2.9 kmh 30.12 in1020.0 mb 0.00 in0.0 mm 0.00 in0.0 mm 0.00 in0.0 mm
02:30 AM 69.1°F20.6°C 60.8°F16.0°C 75% 1.2 mph ESE1.9 kmh ESE 3.8 mph6.1 kmh 30.13 in1020.3 mb 0.00 in0.0 mm 0.00 in0.0 mm 0.00 in0.0 mm
02:15 AM 70.0°F21.1°C 61.3°F16.3°C 74% 0.6 mph ESE1.0 kmh ESE 2.9 mph4.7 kmh 30.14 in1020.7 mb 0.00 in0.0 mm 0.00 in0.0 mm 0.00 in0.0 mm
02:00 AM 70.2°F21.2°C 61.9°F16.6°C 75% 0.4 mph ESE0.6 kmh ESE 2.2 mph3.5 kmh 30.14 in1020.7 mb 0.00 in0.0 mm 0.00 in0.0 mm 0.00 in0.0 mm
01:45 AM 69.6°F20.9°C 61.3°F16.3°C 75% Calm Calm 1.3 mph2.1 kmh 30.13 in1020.3 mb 0.00 in0.0 mm 0.00 in0.0 mm 0.00 in0.0 mm
01:30 AM 69.6°F20.9°C 61.3°F16.3°C 75% 0.8 mph ESE1.3 kmh ESE 2.9 mph4.7 kmh 30.13 in1020.3 mb 0.00 in0.0 mm 0.00 in0.0 mm 0.00 in0.0 mm
01:15 AM 70.3°F21.3°C 61.7°F16.5°C 74% 1.2 mph ESE1.9 kmh ESE 3.1 mph5.0 kmh 30.13 in1020.3 mb 0.00 in0.0 mm 0.00 in0.0 mm 0.00 in0.0 mm
01:00 AM 70.3°F21.3°C 61.3°F16.3°C 73% 0.2 mph ESE0.3 kmh ESE 1.1 mph1.8 kmh 30.14 in1020.7 mb 0.00 in0.0 mm 0.00 in0.0 mm 0.00 in0.0 mm
12:45 AM 70.0°F21.1°C 60.9°F16.1°C 73% Calm Calm 1.3 mph2.1 kmh 30.14 in1020.7 mb 0.00 in0.0 mm 0.00 in0.0 mm 0.00 in0.0 mm
12:30 AM 69.6°F20.9°C 60.6°F15.9°C 73% 0.8 mph ESE1.3 kmh ESE 2.2 mph3.5 kmh 30.14 in1020.7 mb 0.00 in0.0 mm 0.00 in0.0 mm 0.00 in0.0 mm
12:15 AM 69.6°F20.9°C 60.6°F15.9°C 73% 1.4 mph ESE2.3 kmh ESE 2.7 mph4.3 kmh 30.15 in1021.0 mb 0.00 in0.0 mm 0.00 in0.0 mm 0.00 in0.0 mm
12:00 AM 70.5°F21.4°C 61.1°F16.2°C 72% Calm Calm -- 30.16 in1021.3 mb 0.00 in0.0 mm 0.00 in0.0 mm 0.00 in0.0 mm